Time;durP1;ratioP1;P1;durP2;ratioP2;P2;SDS_P1;SDS_P2;PMS_P1;PMS_P2;Temp;Humidity;BMP_temperature;BMP_pressure;BME280_temperature;BME280_humidity;BME280_pressure;Samples;Min_cycle;Max_cycle;Signal;HPM_P1;HPM_P2
2021/06/14 00:01:58;;;;;;;13.03;11.60;;;11.30;99.90;;;;;;4936404;29;21342;-52
2021/06/14 00:04:27;;;;;;;12.50;11.20;;;11.20;99.90;;;;;;4936770;29;21025;-52
2021/06/14 00:06:52;;;;;;;14.20;10.40;;;11.20;99.90;;;;;;4934225;29;20449;-50
2021/06/14 00:09:22;;;;;;;13.23;10.37;;;11.20;99.90;;;;;;4933950;29;20788;-54
2021/06/14 00:11:48;;;;;;;13.30;9.90;;;11.10;99.90;;;;;;4933709;28;20653;-55
2021/06/14 00:14:14;;;;;;;15.80;11.17;;;11.10;99.90;;;;;;4934269;29;20433;-53
2021/06/14 00:16:43;;;;;;;13.13;11.17;;;11.00;99.90;;;;;;4942364;29;20540;-52
2021/06/14 00:19:08;;;;;;;14.27;10.93;;;11.00;99.90;;;;;;4937880;29;20484;-54
2021/06/14 00:21:35;;;;;;;13.07;11.10;;;11.00;99.90;;;;;;4943186;28;20446;-54
2021/06/14 00:24:01;;;;;;;12.03;10.80;;;11.00;99.90;;;;;;4915308;29;20452;-53
2021/06/14 00:26:29;;;;;;;12.53;11.27;;;10.90;99.90;;;;;;4932445;29;20472;-57
2021/06/14 00:28:55;;;;;;;12.93;11.40;;;10.90;99.90;;;;;;4938710;29;20433;-56
2021/06/14 00:31:21;;;;;;;11.80;10.60;;;10.90;99.90;;;;;;4936451;29;20498;-54
2021/06/14 00:33:47;;;;;;;13.10;10.53;;;10.90;99.90;;;;;;4932898;29;20194;-54
2021/06/14 00:36:12;;;;;;;11.53;10.37;;;10.90;99.90;;;;;;4934195;29;20234;-53
2021/06/14 00:38:38;;;;;;;12.43;11.20;;;10.80;99.90;;;;;;4933545;29;20442;-52
2021/06/14 00:41:05;;;;;;;13.20;11.27;;;10.80;99.90;;;;;;4947036;29;20220;-56
2021/06/14 00:43:32;;;;;;;13.90;10.47;;;10.70;99.90;;;;;;4941461;29;20541;-55
2021/06/14 00:45:59;;;;;;;11.43;10.10;;;10.70;99.90;;;;;;4932479;29;20873;-53
2021/06/14 00:48:24;;;;;;;15.17;10.97;;;10.70;99.90;;;;;;4935641;29;20485;-53
2021/06/14 00:50:59;;;;;;;11.30;10.10;;;10.70;99.90;;;;;;4937665;29;20454;-49
2021/06/14 00:53:34;;;;;;;12.40;11.10;;;10.70;99.90;;;;;;4933207;29;20676;-53
2021/06/14 00:56:01;;;;;;;13.80;10.27;;;10.70;99.90;;;;;;4933096;29;20429;-54
2021/06/14 00:58:27;;;;;;;12.93;10.73;;;10.80;99.90;;;;;;4941127;29;20456;-56
2021/06/14 01:00:54;;;;;;;13.17;10.63;;;10.80;99.90;;;;;;4936838;29;20473;-53
2021/06/14 01:03:20;;;;;;;11.53;10.43;;;10.70;99.90;;;;;;4934187;29;20444;-53
2021/06/14 01:06:00;;;;;;;11.77;10.50;;;10.70;99.90;;;;;;4935715;29;20916;-55
2021/06/14 01:08:27;;;;;;;11.90;10.40;;;10.70;99.90;;;;;;4936185;29;20440;-51
2021/06/14 01:10:53;;;;;;;11.70;10.50;;;10.70;99.90;;;;;;4940636;29;20655;-56
2021/06/14 01:13:39;;;;;;;11.37;10.20;;;10.70;99.90;;;;;;4939305;28;20429;-53
2021/06/14 01:16:23;;;;;;;11.13;9.90;;;10.60;99.90;;;;;;4940616;28;20948;-54
2021/06/14 01:19:02;;;;;;;11.20;10.10;;;10.60;99.90;;;;;;4942041;29;20539;-54
2021/06/14 01:21:40;;;;;;;12.03;10.20;;;10.60;99.90;;;;;;4934829;29;20457;-55
2021/06/14 01:24:42;;;;;;;11.53;10.33;;;10.60;99.90;;;;;;4934723;29;20444;-57
2021/06/14 01:27:11;;;;;;;11.87;10.57;;;10.50;99.90;;;;;;4935005;29;20523;-53
2021/06/14 01:29:37;;;;;;;13.60;10.40;;;10.50;99.90;;;;;;4916031;29;20623;-52
2021/06/14 01:32:06;;;;;;;11.47;10.23;;;10.50;99.90;;;;;;4933308;29;20465;-55
2021/06/14 01:34:34;;;;;;;12.50;10.60;;;10.50;99.90;;;;;;4931840;29;20931;-50
2021/06/14 01:37:02;;;;;;;13.20;11.00;;;10.40;99.90;;;;;;4932699;29;20440;-51
2021/06/14 01:39:32;;;;;;;14.03;11.10;;;10.40;99.90;;;;;;4932475;29;20475;-56
2021/06/14 01:41:59;;;;;;;13.50;10.43;;;10.40;99.90;;;;;;4935440;29;20456;-56
2021/06/14 01:44:27;;;;;;;15.10;10.97;;;10.40;99.90;;;;;;4941897;28;20954;-53
2021/06/14 01:46:56;;;;;;;12.50;11.20;;;10.40;99.90;;;;;;4944214;29;20449;-53
2021/06/14 01:49:24;;;;;;;12.00;10.33;;;10.30;99.90;;;;;;4947000;29;20471;-52
2021/06/14 01:51:50;;;;;;;11.77;10.50;;;10.40;99.90;;;;;;4948262;29;20489;-56
2021/06/14 01:54:16;;;;;;;13.20;10.43;;;10.30;99.90;;;;;;4949957;29;20472;-54
2021/06/14 01:56:47;;;;;;;11.93;9.90;;;10.30;99.90;;;;;;4942170;29;20446;-56
2021/06/14 01:59:24;;;;;;;13.77;10.80;;;10.20;99.90;;;;;;4932300;29;21355;-56
2021/06/14 02:01:54;;;;;;;12.20;10.10;;;10.20;99.90;;;;;;4941607;29;20464;-54
2021/06/14 02:04:20;;;;;;;14.30;10.37;;;10.10;99.90;;;;;;4951594;29;20482;-53
2021/06/14 02:06:49;;;;;;;12.73;11.10;;;10.10;99.90;;;;;;4950424;28;20471;-54
2021/06/14 02:09:20;;;;;;;12.77;10.60;;;10.10;99.90;;;;;;4949984;29;20857;-55
2021/06/14 02:11:49;;;;;;;11.90;10.03;;;10.10;99.90;;;;;;4946073;28;20436;-52
2021/06/14 02:14:24;;;;;;;12.53;11.00;;;10.10;99.90;;;;;;4959962;28;20427;-56
2021/06/14 02:16:51;;;;;;;14.33;11.40;;;10.00;99.90;;;;;;4947954;28;20432;-54
2021/06/14 02:19:16;;;;;;;12.57;11.13;;;10.00;99.90;;;;;;4936343;29;20828;-53
2021/06/14 02:21:42;;;;;;;11.83;10.20;;;10.00;99.90;;;;;;4939938;29;20432;-54
2021/06/14 02:24:08;;;;;;;14.33;10.63;;;10.00;99.90;;;;;;4932772;28;20686;-56
2021/06/14 02:26:36;;;;;;;12.50;11.03;;;9.90;99.90;;;;;;4943059;29;20485;-54
2021/06/14 02:29:01;;;;;;;13.77;10.40;;;9.90;99.90;;;;;;4943776;29;20185;-54
2021/06/14 02:31:27;;;;;;;12.00;10.37;;;9.90;99.90;;;;;;4936346;29;20432;-54
2021/06/14 02:33:52;;;;;;;14.00;11.20;;;9.90;99.90;;;;;;4934783;29;20261;-56
2021/06/14 02:36:20;;;;;;;11.17;9.77;;;9.90;99.90;;;;;;4935626;29;20186;-54
2021/06/14 02:38:46;;;;;;;13.47;11.07;;;9.90;99.90;;;;;;4935439;29;20270;-52
2021/06/14 02:41:12;;;;;;;13.97;10.50;;;9.90;99.90;;;;;;4936189;29;20461;-54
2021/06/14 02:43:38;;;;;;;12.37;10.23;;;9.90;99.90;;;;;;4934416;29;20552;-51
2021/06/14 02:46:05;;;;;;;13.33;10.93;;;9.80;99.90;;;;;;4935395;29;20433;-52
2021/06/14 02:48:31;;;;;;;13.20;11.80;;;9.80;99.90;;;;;;4942981;29;20447;-58
2021/06/14 02:51:00;;;;;;;12.53;10.90;;;9.80;99.90;;;;;;4937905;29;20426;-51
2021/06/14 02:53:29;;;;;;;15.53;11.00;;;9.80;99.90;;;;;;4935823;28;20438;-53
2021/06/14 02:56:05;;;;;;;12.10;10.73;;;9.80;99.90;;;;;;4935128;29;20513;-55
2021/06/14 02:58:38;;;;;;;12.63;10.57;;;9.80;99.90;;;;;;4941062;29;20539;-54
2021/06/14 03:01:06;;;;;;;11.73;10.53;;;9.70;99.90;;;;;;4929764;29;20504;-50
2021/06/14 03:03:34;;;;;;;13.30;10.60;;;9.70;99.90;;;;;;4940776;29;20460;-54
2021/06/14 03:06:00;;;;;;;13.43;11.87;;;9.70;99.90;;;;;;4934235;29;20434;-52
2021/06/14 03:08:26;;;;;;;13.87;11.60;;;9.70;99.90;;;;;;4922929;29;20453;-54
2021/06/14 03:10:54;;;;;;;14.93;11.27;;;9.70;99.90;;;;;;4936802;28;20441;-56
2021/06/14 03:13:20;;;;;;;19.03;12.37;;;9.70;99.90;;;;;;4937288;28;20929;-54
2021/06/14 03:15:46;;;;;;;11.57;10.40;;;9.60;99.90;;;;;;4935103;29;20528;-53
2021/06/14 03:18:12;;;;;;;12.60;11.30;;;9.60;99.90;;;;;;4917104;29;20477;-53
2021/06/14 03:20:40;;;;;;;14.40;12.50;;;9.60;99.90;;;;;;4946507;29;20206;-55
2021/06/14 03:23:07;;;;;;;13.80;11.63;;;9.60;99.90;;;;;;4934639;29;20934;-52
2021/06/14 03:25:33;;;;;;;14.97;12.80;;;9.60;99.90;;;;;;4943961;28;20451;-53
2021/06/14 03:27:59;;;;;;;13.80;12.27;;;9.60;99.90;;;;;;4945536;29;20441;-54
2021/06/14 03:30:27;;;;;;;16.53;12.80;;;9.60;99.90;;;;;;4935352;29;20198;-54
2021/06/14 03:32:54;;;;;;;15.07;12.07;;;9.60;99.90;;;;;;4936262;29;20453;-55
2021/06/14 03:35:21;;;;;;;16.00;12.30;;;9.60;99.90;;;;;;4935254;29;21014;-53
2021/06/14 03:37:47;;;;;;;13.57;11.47;;;9.60;99.90;;;;;;4934920;29;20445;-51
2021/06/14 03:40:15;;;;;;;13.73;12.33;;;9.50;99.90;;;;;;4933989;29;20971;-52
2021/06/14 03:42:41;;;;;;;14.33;12.70;;;9.50;99.90;;;;;;4934182;29;20450;-54
2021/06/14 03:45:10;;;;;;;13.53;11.60;;;9.50;99.90;;;;;;4934587;29;20438;-55
2021/06/14 03:47:37;;;;;;;12.67;11.23;;;9.50;99.90;;;;;;4933759;29;20229;-57
2021/06/14 03:50:08;;;;;;;13.50;11.53;;;9.50;99.90;;;;;;4934397;29;20419;-52
2021/06/14 03:52:33;;;;;;;15.57;11.03;;;9.60;99.90;;;;;;4942657;29;20447;-56
2021/06/14 03:54:59;;;;;;;13.53;10.80;;;9.60;99.90;;;;;;4954428;28;20445;-54
2021/06/14 03:57:25;;;;;;;14.90;12.63;;;9.70;99.90;;;;;;4944447;28;20196;-55
2021/06/14 03:59:50;;;;;;;15.60;12.53;;;9.70;99.90;;;;;;4959081;28;20213;-57
2021/06/14 04:02:16;;;;;;;13.10;11.70;;;9.70;99.90;;;;;;4934488;29;20692;-56
2021/06/14 04:07:07;;;;;;;14.97;11.80;;;9.70;99.90;;;;;;4935915;29;20277;-54
2021/06/14 04:09:32;;;;;;;12.10;10.73;;;9.70;99.90;;;;;;4925526;29;20335;-55
2021/06/14 04:12:00;;;;;;;14.47;11.50;;;9.70;99.90;;;;;;4928827;29;20280;-56
2021/06/14 04:14:26;;;;;;;13.80;12.30;;;9.70;99.90;;;;;;4934161;28;20245;-55
2021/06/14 04:16:51;;;;;;;18.60;12.43;;;9.70;99.90;;;;;;4924806;29;20473;-56
2021/06/14 04:19:17;;;;;;;13.33;11.70;;;9.70;99.90;;;;;;4925638;29;20558;-55
2021/06/14 04:21:43;;;;;;;12.97;11.67;;;9.80;99.90;;;;;;4926375;28;20193;-57
2021/06/14 04:24:09;;;;;;;14.13;12.20;;;9.80;99.90;;;;;;4928137;28;20273;-53
2021/06/14 04:26:35;;;;;;;12.83;11.43;;;9.90;99.90;;;;;;4929951;28;20306;-56
2021/06/14 04:29:02;;;;;;;14.93;11.50;;;9.90;99.90;;;;;;4936450;28;21225;-56
2021/06/14 04:31:27;;;;;;;14.73;11.70;;;10.00;99.90;;;;;;4925088;29;20184;-57
2021/06/14 04:33:53;;;;;;;12.80;11.50;;;10.10;99.90;;;;;;4928910;29;20442;-56
2021/06/14 04:36:18;;;;;;;15.03;11.73;;;10.20;99.90;;;;;;4934961;29;20691;-52
2021/06/14 04:38:44;;;;;;;14.63;11.23;;;10.20;99.90;;;;;;4927810;29;20218;-56
2021/06/14 04:41:09;;;;;;;11.53;10.43;;;10.30;99.90;;;;;;4925231;28;20212;-55
2021/06/14 04:43:35;;;;;;;12.13;10.83;;;10.40;99.90;;;;;;4938761;29;20252;-54
2021/06/14 04:46:01;;;;;;;14.67;11.60;;;10.50;99.90;;;;;;4936811;29;20213;-57
2021/06/14 04:48:27;;;;;;;16.90;12.10;;;10.50;99.90;;;;;;4937818;28;20946;-57
2021/06/14 04:50:52;;;;;;;12.23;11.03;;;10.60;99.90;;;;;;4949903;28;20201;-55
2021/06/14 04:53:18;;;;;;;11.43;10.33;;;10.70;99.90;;;;;;4932525;29;20571;-56
2021/06/14 04:55:44;;;;;;;17.47;12.10;;;10.80;99.90;;;;;;4932192;29;20186;-57
2021/06/14 04:58:10;;;;;;;14.03;9.80;;;10.80;99.90;;;;;;4942513;29;20204;-56
2021/06/14 05:00:35;;;;;;;11.87;10.77;;;10.80;99.90;;;;;;4944417;29;20958;-52
2021/06/14 05:03:01;;;;;;;11.37;10.27;;;10.90;99.90;;;;;;4933664;29;20445;-57
2021/06/14 05:05:27;;;;;;;11.40;9.90;;;10.90;99.90;;;;;;4932939;29;20177;-53
2021/06/14 05:07:53;;;;;;;11.87;10.27;;;11.00;99.90;;;;;;4934069;29;20422;-56
2021/06/14 05:10:18;;;;;;;11.73;9.93;;;11.00;99.90;;;;;;4935315;29;20244;-54
2021/06/14 05:12:44;;;;;;;11.47;10.30;;;11.10;99.90;;;;;;4932185;29;20185;-57
2021/06/14 05:15:10;;;;;;;12.63;10.83;;;11.30;99.90;;;;;;4935166;29;20201;-56
2021/06/14 05:17:36;;;;;;;11.57;10.30;;;11.40;99.90;;;;;;4933092;29;20233;-55
2021/06/14 05:20:05;;;;;;;10.70;9.63;;;11.50;99.90;;;;;;4947190;29;20970;-57
2021/06/14 05:22:30;;;;;;;11.33;10.00;;;11.60;99.90;;;;;;4934534;29;20441;-54
2021/06/14 05:24:56;;;;;;;10.83;9.73;;;11.70;99.10;;;;;;4934164;29;20799;-58
2021/06/14 05:27:22;;;;;;;11.37;10.23;;;11.80;99.50;;;;;;4933485;29;20201;-54
2021/06/14 05:29:47;;;;;;;11.37;10.27;;;11.80;97.90;;;;;;4940905;29;20202;-54
2021/06/14 05:32:13;;;;;;;10.70;8.80;;;11.90;94.70;;;;;;4931338;29;20787;-56
2021/06/14 05:34:39;;;;;;;10.67;9.57;;;12.10;95.60;;;;;;4933426;29;20189;-57
2021/06/14 05:37:04;;;;;;;10.53;9.33;;;12.20;94.40;;;;;;4931915;29;20244;-55
2021/06/14 05:39:30;;;;;;;10.37;9.30;;;12.30;91.80;;;;;;4933179;29;20854;-57
2021/06/14 05:41:55;;;;;;;10.30;9.27;;;12.50;89.70;;;;;;4919704;29;20181;-57
2021/06/14 05:44:21;;;;;;;10.90;9.80;;;12.50;85.50;;;;;;4923560;29;20265;-57
2021/06/14 05:46:47;;;;;;;10.80;9.07;;;12.60;85.80;;;;;;4931510;29;20198;-55
2021/06/14 05:49:12;;;;;;;11.93;9.33;;;12.80;76.30;;;;;;4932712;29;20192;-56
2021/06/14 05:51:42;;;;;;;10.93;9.83;;;12.90;76.20;;;;;;4949290;28;20297;-52
2021/06/14 05:54:07;;;;;;;10.73;9.60;;;13.00;72.80;;;;;;4943716;29;20681;-53
2021/06/14 05:56:33;;;;;;;9.70;8.70;;;13.10;62.90;;;;;;4931385;29;20426;-57
2021/06/14 05:58:59;;;;;;;11.07;8.80;;;13.10;56.50;;;;;;4954551;28;20181;-57
2021/06/14 06:01:24;;;;;;;9.97;8.50;;;13.30;53.10;;;;;;4951578;28;20276;-57
2021/06/14 06:03:50;;;;;;;9.50;8.57;;;13.40;43.00;;;;;;4940362;28;20205;-55
2021/06/14 06:06:16;;;;;;;9.20;8.20;;;13.60;36.60;;;;;;4936578;29;20278;-52
2021/06/14 06:08:41;;;;;;;10.47;8.50;;;13.60;27.30;;;;;;4938918;29;20565;-55
2021/06/14 06:11:07;;;;;;;8.63;7.83;;;13.60;26.80;;;;;;4940101;29;20625;-57
2021/06/14 06:13:33;;;;;;;9.50;8.63;;;13.70;17.60;;;;;;4941464;29;20191;-54
2021/06/14 06:15:58;;;;;;;8.00;7.20;;;13.70;14.30;;;;;;4925570;29;20201;-54
2021/06/14 06:18:27;;;;;;;9.73;8.70;;;13.80;12.20;;;;;;4936388;29;20218;-56
2021/06/14 06:20:53;;;;;;;10.30;8.90;;;14.10;1.00;;;;;;4942517;29;20212;-57
2021/06/14 06:23:18;;;;;;;9.63;8.10;;;14.20;1.00;;;;;;4935479;29;20422;-56
2021/06/14 06:25:44;;;;;;;8.97;8.03;;;14.20;1.00;;;;;;4939142;29;20194;-57
2021/06/14 06:28:10;;;;;;;8.80;7.97;;;14.40;1.00;;;;;;4947014;29;20601;-58
2021/06/14 06:30:37;;;;;;;8.57;7.73;;;14.50;1.00;;;;;;4937864;29;21035;-53
2021/06/14 06:33:08;;;;;;;9.80;8.13;;;14.60;1.00;;;;;;4936270;29;20241;-57
2021/06/14 06:35:34;;;;;;;8.23;7.47;;;14.70;1.00;;;;;;4936313;29;20429;-56
2021/06/14 06:38:00;;;;;;;8.73;7.87;;;14.90;1.00;;;;;;4935768;29;20428;-58
2021/06/14 06:40:27;;;;;;;8.60;7.57;;;15.00;1.00;;;;;;4935836;29;20461;-60
2021/06/14 06:42:54;;;;;;;10.83;8.00;;;15.00;1.00;;;;;;4947691;29;20411;-58
2021/06/14 06:45:20;;;;;;;8.77;7.87;;;15.10;1.00;;;;;;4935882;29;20446;-59
2021/06/14 06:47:46;;;;;;;8.73;7.27;;;15.20;1.00;;;;;;4935985;29;20407;-55
2021/06/14 06:50:12;;;;;;;8.13;7.43;;;15.30;1.00;;;;;;4935620;29;20423;-57
2021/06/14 06:52:38;;;;;;;10.70;8.63;;;15.40;1.00;;;;;;4951092;28;20248;-57
2021/06/14 06:55:07;;;;;;;7.83;7.13;;;15.50;1.00;;;;;;4935287;29;20449;-58
2021/06/14 06:57:33;;;;;;;8.57;7.77;;;15.60;1.00;;;;;;4941280;29;20502;-57
2021/06/14 06:59:58;;;;;;;7.13;6.47;;;15.70;1.00;;;;;;4952004;28;20562;-56
2021/06/14 07:02:25;;;;;;;9.23;7.60;;;15.80;1.00;;;;;;4938056;29;20203;-56
2021/06/14 07:04:54;;;;;;;8.83;8.00;;;15.90;1.00;;;;;;4934865;29;20183;-57
2021/06/14 07:07:20;;;;;;;7.80;7.10;;;16.00;1.00;;;;;;4935680;29;20849;-54
2021/06/14 07:09:46;;;;;;;9.37;7.87;;;16.10;1.00;;;;;;4935485;29;20436;-57
2021/06/14 07:12:11;;;;;;;8.17;7.37;;;16.20;1.00;;;;;;4934580;29;20182;-57
2021/06/14 07:14:37;;;;;;;8.67;7.30;;;16.30;1.00;;;;;;4928770;29;20239;-50
2021/06/14 07:17:02;;;;;;;10.47;7.80;;;16.40;1.00;;;;;;4933491;29;20292;-53
2021/06/14 07:19:28;;;;;;;8.83;6.87;;;16.50;1.00;;;;;;4933445;29;20244;-53
2021/06/14 07:21:55;;;;;;;8.23;7.43;;;16.60;1.00;;;;;;4934207;29;20663;-56
2021/06/14 07:24:20;;;;;;;11.47;7.77;;;16.60;1.00;;;;;;4932755;29;20185;-54
2021/06/14 07:26:46;;;;;;;10.57;7.30;;;16.70;1.00;;;;;;4932682;29;20453;-55
2021/06/14 07:29:12;;;;;;;9.10;7.83;;;16.90;1.00;;;;;;4935273;29;20676;-51
2021/06/14 07:31:37;;;;;;;8.40;7.57;;;17.00;1.00;;;;;;4945623;29;20210;-57
2021/06/14 07:34:03;;;;;;;9.40;8.40;;;17.10;1.00;;;;;;4950363;29;20169;-53
2021/06/14 07:36:30;;;;;;;8.50;7.50;;;17.20;1.00;;;;;;4950752;29;20656;-57
2021/06/14 07:38:56;;;;;;;8.20;7.40;;;17.30;1.00;;;;;;4947773;29;20635;-56
2021/06/14 07:41:23;;;;;;;10.10;7.30;;;17.50;1.00;;;;;;4949619;29;20469;-55
2021/06/14 07:43:50;;;;;;;9.13;7.50;;;17.60;1.00;;;;;;4944143;29;20439;-56
2021/06/14 07:46:16;;;;;;;7.50;6.90;;;17.70;1.00;;;;;;4947185;29;20405;-56
2021/06/14 07:48:41;;;;;;;10.00;6.90;;;17.90;99.90;;;;;;4940558;29;21213;-53
2021/06/14 07:51:09;;;;;;;7.33;6.63;;;18.00;99.90;;;;;;4945784;28;20219;-53
2021/06/14 07:53:35;;;;;;;7.80;7.03;;;18.20;99.90;;;;;;4942119;29;20193;-54
2021/06/14 07:56:00;;;;;;;9.63;6.70;;;18.30;1.00;;;;;;4943200;29;20427;-56
2021/06/14 07:58:26;;;;;;;7.40;6.67;;;18.50;1.00;;;;;;4937942;29;20530;-57
2021/06/14 08:00:53;;;;;;;7.30;6.60;;;18.60;7.00;;;;;;4937051;29;20687;-58
2021/06/14 08:03:22;;;;;;;7.13;5.77;;;18.70;1.00;;;;;;4933774;29;20188;-55
2021/06/14 08:05:51;;;;;;;7.47;6.20;;;18.80;1.00;;;;;;4945726;29;20452;-56
2021/06/14 08:08:18;;;;;;;7.40;6.67;;;19.00;99.90;;;;;;4950574;29;20410;-55
2021/06/14 08:10:45;;;;;;;8.07;6.50;;;19.10;1.00;;;;;;4948635;29;20425;-56
2021/06/14 08:13:11;;;;;;;7.17;6.50;;;19.20;99.90;;;;;;4949000;29;20424;-54
2021/06/14 08:15:38;;;;;;;8.43;6.50;;;19.30;1.00;;;;;;4946977;29;20426;-55
2021/06/14 08:26:29;;;;;;;9.30;6.93;;;19.80;99.90;;;;;;4932289;29;20427;-54
2021/06/14 08:28:57;;;;;;;7.13;6.43;;;20.00;1.00;;;;;;4933641;29;20437;-52
2021/06/14 08:31:23;;;;;;;8.00;6.43;;;20.10;1.00;;;;;;4932564;29;21590;-55
2021/06/14 08:33:49;;;;;;;7.40;6.70;;;20.40;1.00;;;;;;4933923;29;20429;-57
2021/06/14 08:36:14;;;;;;;6.53;5.90;;;20.50;1.00;;;;;;4933161;29;20410;-58
2021/06/14 08:38:40;;;;;;;7.20;6.10;;;20.50;1.00;;;;;;4938092;29;20206;-58
2021/06/14 08:41:06;;;;;;;9.90;7.17;;;20.60;1.00;;;;;;4951991;28;20205;-56
2021/06/14 08:43:32;;;;;;;7.80;7.10;;;20.90;99.90;;;;;;4951626;29;20165;-58
2021/06/14 08:45:58;;;;;;;8.20;7.40;;;21.00;1.00;;;;;;4938710;29;20240;-56
2021/06/14 08:48:25;;;;;;;7.70;6.90;;;20.90;1.00;;;;;;4935327;29;20425;-58
2021/06/14 08:50:51;;;;;;;10.27;7.77;;;20.90;1.00;;;;;;4928978;29;20178;-55
2021/06/14 08:53:16;;;;;;;8.40;7.70;;;21.00;1.00;;;;;;4932538;29;20421;-57
2021/06/14 08:55:43;;;;;;;7.33;6.73;;;21.00;1.00;;;;;;4932549;29;20214;-57
2021/06/14 08:58:09;;;;;;;11.27;7.53;;;21.10;99.90;;;;;;4950082;28;20244;-54
2021/06/14 09:00:35;;;;;;;8.03;7.23;;;21.30;1.00;;;;;;4954159;28;21038;-58
2021/06/14 09:03:01;;;;;;;7.70;7.03;;;21.40;1.00;;;;;;4960202;28;20188;-57
2021/06/14 09:05:27;;;;;;;7.43;6.83;;;21.50;1.00;;;;;;4958848;28;20867;-58
2021/06/14 09:07:59;;;;;;;7.53;6.83;;;21.80;1.00;;;;;;4938527;28;20432;-54
2021/06/14 09:10:28;;;;;;;7.27;6.67;;;21.90;1.00;;;;;;4952396;28;20451;-55
2021/06/14 09:12:55;;;;;;;9.60;7.50;;;22.10;1.00;;;;;;4948099;28;20432;-55
2021/06/14 09:15:26;;;;;;;7.60;6.80;;;22.40;1.00;;;;;;4932116;29;20489;-55
2021/06/14 09:17:54;;;;;;;8.33;7.07;;;22.70;1.00;;;;;;4931290;29;20492;-57
2021/06/14 09:20:25;;;;;;;6.97;6.27;;;23.00;99.90;;;;;;4932048;29;20532;-56
2021/06/14 09:22:52;;;;;;;8.30;6.87;;;23.20;99.90;;;;;;4932467;28;21156;-59
2021/06/14 09:25:18;;;;;;;8.53;7.20;;;23.80;99.90;;;;;;4932945;29;20426;-57
2021/06/14 09:27:46;;;;;;;7.17;6.60;;;24.30;99.90;;;;;;4932312;29;20412;-59
2021/06/14 09:30:26;;;;;;;7.17;6.57;;;24.90;99.90;;;;;;4935805;29;20437;-58
2021/06/14 09:32:59;;;;;;;6.90;6.30;;;25.50;99.90;;;;;;4939097;29;20437;-57
2021/06/14 09:35:29;;;;;;;6.43;5.83;;;26.20;99.90;;;;;;4943849;28;20439;-57
2021/06/14 09:38:01;;;;;;;6.40;5.90;;;26.60;99.90;;;;;;4950261;28;20420;-58
2021/06/14 09:40:33;;;;;;;6.87;6.27;;;27.40;99.90;;;;;;4936851;29;20493;-58
2021/06/14 09:43:00;;;;;;;6.87;6.30;;;28.00;99.90;;;;;;4933114;29;20862;-58
2021/06/14 09:45:25;;;;;;;6.47;5.83;;;28.20;99.90;;;;;;4931924;29;20497;-58
2021/06/14 09:47:54;;;;;;;6.57;5.97;;;28.40;99.90;;;;;;4931959;29;20928;-58
2021/06/14 09:50:31;;;;;;;6.70;6.10;;;28.80;99.90;;;;;;4932403;29;20185;-57
2021/06/14 09:53:11;;;;;;;6.63;6.13;;;29.30;99.90;;;;;;4946428;29;20471;-58
2021/06/14 09:55:37;;;;;;;6.73;6.03;;;29.40;99.90;;;;;;4948181;29;20409;-57
2021/06/14 09:58:16;;;;;;;5.83;5.40;;;29.90;99.90;;;;;;4935797;29;20429;-59
2021/06/14 10:00:50;;;;;;;6.47;5.80;;;30.10;99.90;;;;;;4932210;29;20461;-57
2021/06/14 10:03:16;;;;;;;5.80;5.20;;;30.40;99.90;;;;;;4933286;29;20446;-57
2021/06/14 10:05:47;;;;;;;5.87;5.37;;;30.70;99.90;;;;;;4949422;29;20781;-58
2021/06/14 10:08:22;;;;;;;5.53;5.13;;;31.10;99.90;;;;;;4944033;29;20181;-57
2021/06/14 10:10:47;;;;;;;5.40;4.87;;;31.20;99.90;;;;;;4937670;28;20436;-57
2021/06/14 10:13:13;;;;;;;6.50;5.60;;;31.40;99.90;;;;;;4930916;29;21133;-57
2021/06/14 10:15:39;;;;;;;5.90;5.30;;;31.90;99.90;;;;;;4932548;29;20766;-58
2021/06/14 10:18:08;;;;;;;5.63;5.20;;;31.90;99.90;;;;;;4934765;29;20225;-58
2021/06/14 10:20:36;;;;;;;7.80;5.50;;;32.20;99.90;;;;;;4937148;29;20213;-57
2021/06/14 10:23:03;;;;;;;6.17;5.60;;;32.10;99.90;;;;;;4931457;29;20991;-57
2021/06/14 10:25:28;;;;;;;5.03;4.60;;;32.70;99.90;;;;;;4931958;29;20947;-57
2021/06/14 10:27:54;;;;;;;6.50;5.43;;;32.90;99.90;;;;;;4933202;29;20433;-57
2021/06/14 10:30:23;;;;;;;5.63;5.13;;;32.70;99.90;;;;;;4930756;29;20221;-58
2021/06/14 10:32:51;;;;;;;5.70;5.20;;;33.10;99.90;;;;;;4939297;28;21082;-58
2021/06/14 10:35:19;;;;;;;6.20;5.60;;;33.00;99.90;;;;;;4946326;28;20775;-59
2021/06/14 10:37:50;;;;;;;5.27;4.80;;;33.40;99.90;;;;;;4935979;28;20437;-58
2021/06/14 10:40:18;;;;;;;6.10;5.70;;;33.90;99.90;;;;;;4941387;28;20464;-58
2021/06/14 10:42:46;;;;;;;6.13;5.63;;;33.90;99.90;;;;;;4940171;28;20553;-58
2021/06/14 10:45:17;;;;;;;6.00;5.60;;;33.70;99.90;;;;;;4944078;28;20431;-58
2021/06/14 10:47:47;;;;;;;6.70;6.20;;;33.90;99.90;;;;;;4944246;28;20433;-58
2021/06/14 10:50:21;;;;;;;6.37;5.97;;;34.00;99.90;;;;;;4941060;28;20540;-58
2021/06/14 10:52:47;;;;;;;6.30;5.70;;;34.20;99.90;;;;;;4953731;28;20421;-58
2021/06/14 10:55:18;;;;;;;6.23;5.73;;;34.50;99.90;;;;;;4951014;29;20945;-58
2021/06/14 10:57:45;;;;;;;5.87;5.50;;;34.60;99.90;;;;;;4946923;29;20449;-58
2021/06/14 11:00:20;;;;;;;6.70;5.87;;;34.60;99.90;;;;;;4953554;29;20464;-58
2021/06/14 11:02:52;;;;;;;5.80;5.30;;;34.90;99.90;;;;;;4947234;29;20519;-58
2021/06/14 11:05:31;;;;;;;5.03;4.73;;;34.00;99.90;;;;;;4951838;28;20906;-58
2021/06/14 11:07:57;;;;;;;5.40;5.00;;;33.90;99.90;;;;;;4945651;28;20416;-58
2021/06/14 11:10:28;;;;;;;5.80;5.40;;;34.00;99.90;;;;;;4950634;28;20424;-59
2021/06/14 11:13:12;;;;;;;5.70;5.20;;;34.10;99.90;;;;;;4934265;29;20182;-59
2021/06/14 11:15:40;;;;;;;5.10;4.80;;;34.40;99.90;;;;;;4938100;29;21172;-60
2021/06/14 11:18:06;;;;;;;5.83;5.43;;;34.60;99.90;;;;;;4932037;29;20589;-60
2021/06/14 11:20:37;;;;;;;5.90;5.50;;;35.00;99.90;;;;;;4933114;29;21315;-58
2021/06/14 11:23:04;;;;;;;5.20;4.93;;;34.40;99.90;;;;;;4931556;29;20457;-60
2021/06/14 11:25:39;;;;;;;6.27;5.70;;;34.90;99.90;;;;;;4931180;29;20457;-58
2021/06/14 11:28:06;;;;;;;5.10;4.80;;;35.30;99.90;;;;;;4931871;29;20418;-58
2021/06/14 11:30:35;;;;;;;6.00;5.60;;;34.90;99.90;;;;;;4932007;29;20553;-58
2021/06/14 11:33:02;;;;;;;5.97;5.40;;;35.20;99.90;;;;;;4942579;29;20525;-57
2021/06/14 11:35:28;;;;;;;5.73;5.23;;;35.50;99.90;;;;;;4932048;29;20816;-58
2021/06/14 11:37:54;;;;;;;6.53;6.10;;;36.00;99.90;;;;;;4933055;29;20501;-58
2021/06/14 11:40:35;;;;;;;5.97;5.57;;;36.20;99.90;;;;;;4933610;29;20426;-58
2021/06/14 11:43:12;;;;;;;5.27;4.97;;;36.10;99.90;;;;;;4932431;29;20433;-59
2021/06/14 11:45:42;;;;;;;5.17;4.83;;;36.10;99.90;;;;;;4937875;29;20429;-58
2021/06/14 11:48:20;;;;;;;5.40;5.00;;;35.70;99.90;;;;;;4932114;29;20512;-58
2021/06/14 11:50:46;;;;;;;6.07;5.53;;;35.10;99.90;;;;;;4932158;29;20461;-59
2021/06/14 11:53:12;;;;;;;5.87;5.47;;;34.90;99.90;;;;;;4933973;29;20437;-58
2021/06/14 11:55:41;;;;;;;5.33;4.93;;;35.40;99.90;;;;;;4932255;29;20277;-61
2021/06/14 11:58:09;;;;;;;5.50;5.10;;;35.40;99.90;;;;;;4934530;29;20182;-61
2021/06/14 12:00:40;;;;;;;5.20;4.90;;;35.70;99.90;;;;;;4935453;29;20437;-59
2021/06/14 12:03:24;;;;;;;5.17;4.87;;;36.30;99.90;;;;;;4932059;29;20513;-59
2021/06/14 12:05:52;;;;;;;5.40;5.00;;;36.40;99.90;;;;;;4940294;29;20912;-58
2021/06/14 12:08:20;;;;;;;5.73;5.27;;;36.40;99.90;;;;;;4936883;29;20422;-58
2021/06/14 12:10:47;;;;;;;5.40;4.90;;;36.90;99.90;;;;;;4931963;29;20498;-59
2021/06/14 12:13:19;;;;;;;6.07;5.40;;;36.80;99.90;;;;;;4931915;29;20436;-59
2021/06/14 12:15:47;;;;;;;5.30;5.00;;;36.60;99.90;;;;;;4931704;29;20421;-59
2021/06/14 12:18:13;;;;;;;5.70;5.20;;;37.00;99.90;;;;;;4929007;29;77224;-59
2021/06/14 12:20:41;;;;;;;5.60;5.10;;;37.00;99.90;;;;;;4932966;29;20425;-58
2021/06/14 12:23:10;;;;;;;5.43;5.03;;;37.30;99.90;;;;;;4932894;29;20548;-59
2021/06/14 12:25:44;;;;;;;4.70;4.40;;;37.00;99.90;;;;;;4933439;29;21042;-59
2021/06/14 12:28:13;;;;;;;5.80;5.30;;;37.20;99.90;;;;;;4935757;29;20450;-59
2021/06/14 12:30:43;;;;;;;5.53;5.13;;;37.00;99.90;;;;;;4932440;29;20561;-59
2021/06/14 12:33:10;;;;;;;6.47;6.00;;;37.30;99.90;;;;;;4942327;28;20652;-59
2021/06/14 12:35:37;;;;;;;5.40;5.07;;;37.10;99.90;;;;;;4958000;28;20440;-59
2021/06/14 12:38:12;;;;;;;5.87;5.43;;;36.50;99.90;;;;;;4938369;28;20429;-59
2021/06/14 12:40:41;;;;;;;5.60;5.20;;;36.40;99.90;;;;;;4932306;29;20911;-59
2021/06/14 12:43:12;;;;;;;4.70;4.40;;;36.10;99.90;;;;;;4932422;29;20896;-59
2021/06/14 12:45:39;;;;;;;5.20;4.73;;;36.20;99.90;;;;;;4933713;29;20484;-59
2021/06/14 12:48:13;;;;;;;5.87;5.30;;;36.80;99.90;;;;;;4933475;29;20425;-59
2021/06/14 12:50:42;;;;;;;5.10;4.70;;;36.70;99.90;;;;;;4945816;28;20455;-59
2021/06/14 12:53:08;;;;;;;5.40;5.00;;;37.00;99.90;;;;;;4933457;28;20417;-59
2021/06/14 12:55:39;;;;;;;5.07;4.70;;;37.20;99.90;;;;;;4931898;29;20428;-59